createdAt,value
2023-03-29T00:00:27.707Z,101749.38
2023-03-29T00:03:12.687Z,101771.97
2023-03-29T00:05:42.465Z,101768.16
2023-03-29T00:08:15.891Z,101747.13
2023-03-29T00:10:49.904Z,101761.06
2023-03-29T00:13:19.004Z,101747.91
2023-03-29T00:15:47.211Z,101763.63
2023-03-29T00:18:15.032Z,101768.38
2023-03-29T00:20:44.085Z,101774.47
2023-03-29T00:23:12.984Z,101760.75
2023-03-29T00:25:45.274Z,101761.91
2023-03-29T00:28:15.489Z,101757.25
2023-03-29T00:30:43.559Z,101733.47
2023-03-29T00:33:11.893Z,101750.66
2023-03-29T00:35:43.039Z,101735.25
2023-03-29T00:38:12.066Z,101745.28
2023-03-29T00:40:49.726Z,101736.28
2023-03-29T00:43:19.091Z,101748.28
2023-03-29T00:45:48.314Z,101725.38
2023-03-29T00:48:19.300Z,101718.19
2023-03-29T00:50:55.977Z,101702.72
2023-03-29T00:53:31.115Z,101718.63
2023-03-29T00:56:08.188Z,101670.31
2023-03-29T00:58:52.342Z,101685.94
2023-03-29T01:01:28.825Z,101698.19
2023-03-29T01:04:04.988Z,101690.16
2023-03-29T01:06:36.536Z,101669.38
2023-03-29T01:09:10.143Z,101673.66
2023-03-29T01:11:47.491Z,101641.53
2023-03-29T01:14:30.665Z,101650.88
2023-03-29T01:16:59.764Z,101641.56
2023-03-29T01:19:34.991Z,101643.00
2023-03-29T01:22:26.364Z,101647.47
2023-03-29T01:25:21.580Z,101629.25
2023-03-29T01:28:01.229Z,101635.16
2023-03-29T01:30:38.610Z,101644.56
2023-03-29T01:33:32.580Z,101647.47
2023-03-29T01:36:11.899Z,101650.81
2023-03-29T01:38:52.919Z,101654.19
2023-03-29T01:41:21.413Z,101639.81
2023-03-29T01:43:57.022Z,101665.19
2023-03-29T01:46:40.392Z,101657.75
2023-03-29T01:49:13.777Z,101662.19
2023-03-29T01:51:54.018Z,101682.84
2023-03-29T01:54:32.856Z,101676.81
2023-03-29T01:57:07.252Z,101671.25
2023-03-29T01:59:42.691Z,101662.84
2023-03-29T02:02:18.087Z,101641.53
2023-03-29T02:04:58.338Z,101638.94
2023-03-29T02:07:33.120Z,101640.81
2023-03-29T02:10:02.979Z,101671.53
2023-03-29T05:02:57.098Z,101687.09
2023-03-29T05:05:38.000Z,101704.78
2023-03-29T05:08:12.627Z,101696.72
2023-03-29T05:11:16.935Z,101682.81
2023-03-29T05:14:13.482Z,101692.09
2023-03-29T05:19:41.538Z,101664.88
2023-03-29T05:22:11.362Z,101689.34
2023-03-29T05:24:39.376Z,101680.97
2023-03-29T05:27:15.587Z,101695.94
2023-03-29T05:29:49.939Z,101686.59
2023-03-29T05:32:26.009Z,101686.16
2023-03-29T05:34:56.586Z,101672.06
2023-03-29T05:37:24.503Z,101670.06
2023-03-29T05:40:05.582Z,101689.06
2023-03-29T05:42:38.763Z,101693.34
2023-03-29T05:45:10.665Z,101687.19
2023-03-29T05:47:48.074Z,101684.28
2023-03-29T05:50:15.915Z,101694.66
2023-03-29T05:52:44.000Z,101678.84
2023-03-29T05:55:12.643Z,101701.50
2023-03-29T05:57:41.577Z,101695.09
2023-03-29T06:00:25.879Z,101689.06
2023-03-29T06:03:27.795Z,101695.88
2023-03-29T06:06:02.738Z,101703.66
2023-03-29T06:08:33.524Z,101701.03
2023-03-29T06:11:22.992Z,101697.28
2023-03-29T06:14:39.427Z,101703.19
2023-03-29T06:17:28.166Z,101702.19
2023-03-29T06:19:58.166Z,101703.53
2023-03-29T06:22:33.209Z,101698.09
2023-03-29T06:25:01.129Z,101715.19
2023-03-29T06:31:42.516Z,101702.91
2023-03-29T06:34:23.612Z,101701.97
2023-03-29T06:37:01.653Z,101687.28
2023-03-29T06:40:02.279Z,101694.81
2023-03-29T06:42:42.694Z,101718.25
2023-03-29T06:45:34.447Z,101723.00
2023-03-29T06:48:21.156Z,101736.66
2023-03-29T06:50:59.424Z,101738.34
2023-03-29T06:53:32.877Z,101715.03
2023-03-29T06:56:09.695Z,101712.91
2023-03-29T07:01:38.331Z,101725.09
2023-03-29T07:04:20.718Z,101710.00
2023-03-29T07:07:20.723Z,101719.78
2023-03-29T07:09:56.339Z,101739.63
2023-03-29T07:12:24.895Z,101742.72
2023-03-29T07:14:57.208Z,101742.84
2023-03-29T07:17:34.897Z,101735.88
2023-03-29T07:20:08.330Z,101739.34
2023-03-29T07:22:47.644Z,101748.16
2023-03-29T07:25:16.692Z,101772.09
2023-03-29T07:28:09.718Z,101771.97
2023-03-29T07:30:40.976Z,101771.28
2023-03-29T07:33:18.538Z,101763.31
2023-03-29T07:35:58.393Z,101790.06
2023-03-29T07:38:30.192Z,101794.81
2023-03-29T07:41:12.719Z,101768.53
2023-03-29T07:43:42.290Z,101769.19
2023-03-29T07:46:24.222Z,101788.22
2023-03-29T07:48:57.538Z,101778.38
2023-03-29T07:51:47.791Z,101763.13
2023-03-29T07:54:43.210Z,101757.63
2023-03-29T07:57:59.540Z,101759.28
2023-03-29T08:00:32.787Z,101758.22
2023-03-29T15:34:18.800Z,101417.84
2023-03-29T15:37:02.747Z,101430.75
2023-03-29T15:40:13.893Z,101426.53
2023-03-29T15:55:16.032Z,101407.66
2023-03-29T16:04:10.852Z,101420.41
2023-03-29T16:06:39.234Z,101407.78
2023-03-29T16:09:12.422Z,101403.41
2023-03-29T16:11:44.344Z,101387.25
2023-03-29T16:14:31.074Z,101391.97
2023-03-29T16:17:17.941Z,101392.94
2023-03-29T16:20:07.560Z,101382.69
2023-03-29T16:22:43.508Z,101381.91
2023-03-29T16:26:04.949Z,101389.03
2023-03-29T17:27:52.961Z,101416.72
2023-03-29T17:54:57.498Z,101455.28
2023-03-29T18:24:59.264Z,101491.59
2023-03-29T18:39:08.878Z,101509.94
2023-03-29T18:45:37.011Z,101522.22
2023-03-29T18:53:32.962Z,101532.22
2023-03-29T19:00:27.573Z,101541.31
2023-03-29T19:12:05.475Z,101557.50
2023-03-29T19:15:03.360Z,101547.88
2023-03-29T19:22:01.661Z,101541.75
2023-03-29T19:24:40.947Z,101534.81
2023-03-29T19:29:05.081Z,101548.03
2023-03-29T19:33:44.574Z,101553.34
2023-03-29T19:48:33.693Z,101575.97
2023-03-29T19:57:10.284Z,101575.38
2023-03-29T20:13:01.408Z,101579.44
2023-03-29T20:17:27.705Z,101581.38
2023-03-29T20:19:59.151Z,101581.53
2023-03-29T20:27:04.925Z,101599.75
2023-03-29T20:29:40.601Z,101597.09
2023-03-29T20:32:09.787Z,101610.78
2023-03-29T20:34:39.755Z,101591.06
2023-03-29T20:37:25.230Z,101597.91
2023-03-29T20:40:00.400Z,101601.91
2023-03-29T20:42:37.126Z,101602.19
2023-03-29T20:50:49.511Z,101598.72
2023-03-29T20:58:12.005Z,101613.72
2023-03-29T21:00:45.626Z,101617.03
2023-03-29T21:03:16.921Z,101641.88
2023-03-29T21:05:53.253Z,101624.06
2023-03-29T21:16:50.447Z,101635.22
2023-03-29T21:24:43.076Z,101632.41
2023-03-29T21:32:13.914Z,101625.25
2023-03-29T21:34:48.494Z,101624.22
2023-03-29T21:37:17.866Z,101608.91
2023-03-29T21:39:51.149Z,101594.22
2023-03-29T21:43:09.513Z,101609.50
2023-03-29T21:45:45.162Z,101606.56
2023-03-29T21:48:18.846Z,101617.81
2023-03-29T21:52:08.841Z,101630.06
2023-03-29T21:54:13.260Z,101618.94
2023-03-29T21:56:47.511Z,101625.25
2023-03-29T22:17:40.410Z,101598.72
2023-03-29T22:20:21.660Z,101602.09
2023-03-29T22:22:51.205Z,101602.00
2023-03-29T22:26:11.838Z,101620.16
2023-03-29T22:38:59.416Z,101618.00
2023-03-29T22:45:59.979Z,101600.78
2023-03-29T22:48:27.982Z,101601.81
2023-03-29T22:51:00.189Z,101600.09
2023-03-29T22:58:06.440Z,101581.34
2023-03-29T23:04:42.413Z,101607.88
2023-03-29T23:07:10.148Z,101612.34
2023-03-29T23:09:38.183Z,101598.13
2023-03-29T23:12:07.205Z,101592.28
2023-03-29T23:14:35.644Z,101617.63
2023-03-29T23:17:03.509Z,101610.22
2023-03-29T23:19:31.765Z,101615.19
2023-03-29T23:21:59.443Z,101606.72
2023-03-29T23:24:30.896Z,101611.66
2023-03-29T23:26:58.579Z,101627.28
2023-03-29T23:29:26.532Z,101624.34
2023-03-29T23:31:56.946Z,101611.41
2023-03-29T23:34:25.393Z,101643.34
2023-03-29T23:36:53.108Z,101622.03
2023-03-29T23:39:20.941Z,101632.16
2023-03-29T23:41:49.058Z,101634.63
2023-03-29T23:44:17.141Z,101629.41
2023-03-29T23:46:44.952Z,101650.13
2023-03-29T23:49:12.951Z,101636.25
2023-03-29T23:51:42.956Z,101631.47
2023-03-29T23:54:13.038Z,101645.00
